sensor_id;sensor_type;location;lat;lon;timestamp;P1;durP1;ratioP1;P2;durP2;ratioP2
54145;SDS011;65909;49.422;7.738;2023-04-03T00:02:13;5.75;;;2.45;;
54145;SDS011;65909;49.422;7.738;2023-04-03T00:04:39;5.53;;;2.42;;
54145;SDS011;65909;49.422;7.738;2023-04-03T00:07:04;6.18;;;2.47;;
54145;SDS011;65909;49.422;7.738;2023-04-03T00:09:30;4.32;;;2.58;;
54145;SDS011;65909;49.422;7.738;2023-04-03T00:11:55;4.40;;;3.10;;
54145;SDS011;65909;49.422;7.738;2023-04-03T00:14:21;4.43;;;2.67;;
54145;SDS011;65909;49.422;7.738;2023-04-03T00:16:46;5.88;;;2.72;;
54145;SDS011;65909;49.422;7.738;2023-04-03T00:19:12;4.22;;;2.40;;
54145;SDS011;65909;49.422;7.738;2023-04-03T00:21:38;3.88;;;2.20;;
54145;SDS011;65909;49.422;7.738;2023-04-03T00:24:03;5.97;;;2.58;;
54145;SDS011;65909;49.422;7.738;2023-04-03T00:26:29;4.32;;;2.30;;
54145;SDS011;65909;49.422;7.738;2023-04-03T00:28:54;5.25;;;2.70;;
54145;SDS011;65909;49.422;7.738;2023-04-03T00:31:21;4.15;;;2.42;;
54145;SDS011;65909;49.422;7.738;2023-04-03T00:33:46;3.30;;;2.63;;
54145;SDS011;65909;49.422;7.738;2023-04-03T00:36:11;5.30;;;2.33;;
54145;SDS011;65909;49.422;7.738;2023-04-03T00:38:37;6.38;;;2.53;;
54145;SDS011;65909;49.422;7.738;2023-04-03T00:41:03;2.33;;;1.92;;
54145;SDS011;65909;49.422;7.738;2023-04-03T00:43:29;2.70;;;2.10;;
54145;SDS011;65909;49.422;7.738;2023-04-03T00:45:55;3.75;;;2.40;;
54145;SDS011;65909;49.422;7.738;2023-04-03T00:50:50;2.30;;;2.10;;
54145;SDS011;65909;49.422;7.738;2023-04-03T00:53:18;2.80;;;1.80;;
54145;SDS011;65909;49.422;7.738;2023-04-03T00:55:47;4.93;;;2.25;;
54145;SDS011;65909;49.422;7.738;2023-04-03T00:58:14;2.85;;;2.05;;
54145;SDS011;65909;49.422;7.738;2023-04-03T01:00:43;2.88;;;2.05;;
54145;SDS011;65909;49.422;7.738;2023-04-03T01:03:12;2.85;;;2.13;;
54145;SDS011;65909;49.422;7.738;2023-04-03T01:05:38;3.90;;;2.05;;
54145;SDS011;65909;49.422;7.738;2023-04-03T01:08:05;2.47;;;1.90;;
54145;SDS011;65909;49.422;7.738;2023-04-03T01:10:31;3.70;;;2.08;;
54145;SDS011;65909;49.422;7.738;2023-04-03T01:12:56;2.30;;;2.03;;
54145;SDS011;65909;49.422;7.738;2023-04-03T01:15:23;3.65;;;2.00;;
54145;SDS011;65909;49.422;7.738;2023-04-03T01:17:53;3.25;;;1.80;;
54145;SDS011;65909;49.422;7.738;2023-04-03T01:25:35;2.72;;;1.90;;
54145;SDS011;65909;49.422;7.738;2023-04-03T01:28:06;2.38;;;1.88;;
54145;SDS011;65909;49.422;7.738;2023-04-03T01:30:34;2.65;;;1.67;;
54145;SDS011;65909;49.422;7.738;2023-04-03T01:33:10;3.08;;;2.38;;
54145;SDS011;65909;49.422;7.738;2023-04-03T01:35:35;4.75;;;2.15;;
54145;SDS011;65909;49.422;7.738;2023-04-03T01:38:02;3.08;;;2.20;;
54145;SDS011;65909;49.422;7.738;2023-04-03T01:40:27;3.28;;;2.28;;
54145;SDS011;65909;49.422;7.738;2023-04-03T01:42:52;3.13;;;2.17;;
54145;SDS011;65909;49.422;7.738;2023-04-03T01:45:18;3.38;;;2.17;;
54145;SDS011;65909;49.422;7.738;2023-04-03T01:47:43;4.13;;;2.25;;
54145;SDS011;65909;49.422;7.738;2023-04-03T01:50:08;5.72;;;2.00;;
54145;SDS011;65909;49.422;7.738;2023-04-03T01:52:34;5.00;;;2.75;;
54145;SDS011;65909;49.422;7.738;2023-04-03T01:54:59;2.67;;;2.10;;
54145;SDS011;65909;49.422;7.738;2023-04-03T01:57:25;2.78;;;2.08;;
54145;SDS011;65909;49.422;7.738;2023-04-03T01:59:50;4.43;;;2.20;;
54145;SDS011;65909;49.422;7.738;2023-04-03T02:02:16;4.63;;;2.33;;
54145;SDS011;65909;49.422;7.738;2023-04-03T02:04:41;3.40;;;2.08;;
54145;SDS011;65909;49.422;7.738;2023-04-03T02:07:07;2.83;;;2.20;;
54145;SDS011;65909;49.422;7.738;2023-04-03T02:09:32;4.25;;;2.90;;
54145;SDS011;65909;49.422;7.738;2023-04-03T02:11:57;4.78;;;2.40;;
54145;SDS011;65909;49.422;7.738;2023-04-03T02:14:23;2.85;;;1.90;;
54145;SDS011;65909;49.422;7.738;2023-04-03T02:16:48;6.72;;;2.13;;
54145;SDS011;65909;49.422;7.738;2023-04-03T02:19:14;4.70;;;2.33;;
54145;SDS011;65909;49.422;7.738;2023-04-03T02:21:39;6.07;;;2.40;;
54145;SDS011;65909;49.422;7.738;2023-04-03T02:24:05;4.25;;;2.58;;
54145;SDS011;65909;49.422;7.738;2023-04-03T02:26:31;4.15;;;2.45;;
54145;SDS011;65909;49.422;7.738;2023-04-03T02:28:56;4.78;;;2.25;;
54145;SDS011;65909;49.422;7.738;2023-04-03T02:31:21;3.20;;;2.20;;
54145;SDS011;65909;49.422;7.738;2023-04-03T02:33:47;3.90;;;2.22;;
54145;SDS011;65909;49.422;7.738;2023-04-03T02:36:12;2.60;;;1.92;;
54145;SDS011;65909;49.422;7.738;2023-04-03T02:38:38;3.78;;;2.28;;
54145;SDS011;65909;49.422;7.738;2023-04-03T02:41:05;4.25;;;1.73;;
54145;SDS011;65909;49.422;7.738;2023-04-03T02:43:32;5.63;;;2.20;;
54145;SDS011;65909;49.422;7.738;2023-04-03T02:45:58;3.08;;;2.00;;
54145;SDS011;65909;49.422;7.738;2023-04-03T02:48:24;4.20;;;1.85;;
54145;SDS011;65909;49.422;7.738;2023-04-03T02:50:50;3.05;;;1.77;;
54145;SDS011;65909;49.422;7.738;2023-04-03T02:53:15;2.75;;;1.90;;
54145;SDS011;65909;49.422;7.738;2023-04-03T02:55:41;3.38;;;1.85;;
54145;SDS011;65909;49.422;7.738;2023-04-03T02:58:07;3.05;;;1.95;;
54145;SDS011;65909;49.422;7.738;2023-04-03T03:00:33;3.08;;;1.50;;
54145;SDS011;65909;49.422;7.738;2023-04-03T03:02:58;4.07;;;2.28;;
54145;SDS011;65909;49.422;7.738;2023-04-03T03:05:24;4.63;;;1.65;;
54145;SDS011;65909;49.422;7.738;2023-04-03T03:07:50;5.65;;;1.60;;
54145;SDS011;65909;49.422;7.738;2023-04-03T03:10:15;1.92;;;1.52;;
54145;SDS011;65909;49.422;7.738;2023-04-03T03:12:41;2.90;;;1.40;;
54145;SDS011;65909;49.422;7.738;2023-04-03T03:15:06;2.25;;;1.10;;
54145;SDS011;65909;49.422;7.738;2023-04-03T03:17:32;4.97;;;1.40;;
54145;SDS011;65909;49.422;7.738;2023-04-03T03:19:57;4.43;;;1.50;;
54145;SDS011;65909;49.422;7.738;2023-04-03T03:22:23;5.40;;;1.63;;
54145;SDS011;65909;49.422;7.738;2023-04-03T03:24:48;2.00;;;1.50;;
54145;SDS011;65909;49.422;7.738;2023-04-03T03:27:14;3.92;;;1.30;;
54145;SDS011;65909;49.422;7.738;2023-04-03T03:29:41;3.45;;;0.93;;
54145;SDS011;65909;49.422;7.738;2023-04-03T03:32:06;3.72;;;1.60;;
54145;SDS011;65909;49.422;7.738;2023-04-03T03:34:32;2.38;;;1.58;;
54145;SDS011;65909;49.422;7.738;2023-04-03T03:36:57;4.22;;;1.23;;
54145;SDS011;65909;49.422;7.738;2023-04-03T03:39:22;3.60;;;1.40;;
54145;SDS011;65909;49.422;7.738;2023-04-03T03:41:48;4.38;;;1.60;;
54145;SDS011;65909;49.422;7.738;2023-04-03T03:44:14;2.45;;;1.17;;
54145;SDS011;65909;49.422;7.738;2023-04-03T03:46:40;3.50;;;1.40;;
54145;SDS011;65909;49.422;7.738;2023-04-03T03:49:05;1.65;;;1.20;;
54145;SDS011;65909;49.422;7.738;2023-04-03T03:51:30;4.82;;;1.45;;
54145;SDS011;65909;49.422;7.738;2023-04-03T03:53:56;2.75;;;1.55;;
54145;SDS011;65909;49.422;7.738;2023-04-03T03:56:21;3.38;;;1.52;;
54145;SDS011;65909;49.422;7.738;2023-04-03T03:58:47;3.75;;;1.70;;
54145;SDS011;65909;49.422;7.738;2023-04-03T04:01:12;3.05;;;1.50;;
54145;SDS011;65909;49.422;7.738;2023-04-03T04:03:38;1.73;;;1.38;;
54145;SDS011;65909;49.422;7.738;2023-04-03T04:06:03;2.45;;;1.52;;
54145;SDS011;65909;49.422;7.738;2023-04-03T04:08:29;4.70;;;1.55;;
54145;SDS011;65909;49.422;7.738;2023-04-03T04:10:54;4.28;;;1.55;;
54145;SDS011;65909;49.422;7.738;2023-04-03T04:13:20;2.50;;;1.40;;
54145;SDS011;65909;49.422;7.738;2023-04-03T04:15:45;3.30;;;1.50;;
54145;SDS011;65909;49.422;7.738;2023-04-03T04:18:11;5.15;;;2.10;;
54145;SDS011;65909;49.422;7.738;2023-04-03T04:20:36;4.45;;;1.70;;
54145;SDS011;65909;49.422;7.738;2023-04-03T04:23:01;3.10;;;1.30;;
54145;SDS011;65909;49.422;7.738;2023-04-03T04:25:27;1.85;;;1.35;;
54145;SDS011;65909;49.422;7.738;2023-04-03T04:27:52;6.10;;;1.98;;
54145;SDS011;65909;49.422;7.738;2023-04-03T04:30:18;2.75;;;1.75;;
54145;SDS011;65909;49.422;7.738;2023-04-03T04:32:43;1.83;;;1.38;;
54145;SDS011;65909;49.422;7.738;2023-04-03T04:35:08;4.40;;;1.50;;
54145;SDS011;65909;49.422;7.738;2023-04-03T04:37:34;2.95;;;1.58;;
54145;SDS011;65909;49.422;7.738;2023-04-03T04:40:00;2.17;;;1.27;;
54145;SDS011;65909;49.422;7.738;2023-04-03T04:42:25;4.05;;;1.67;;
54145;SDS011;65909;49.422;7.738;2023-04-03T04:44:51;4.70;;;1.67;;
54145;SDS011;65909;49.422;7.738;2023-04-03T04:47:16;2.63;;;1.75;;
54145;SDS011;65909;49.422;7.738;2023-04-03T04:49:42;3.58;;;1.60;;
54145;SDS011;65909;49.422;7.738;2023-04-03T04:52:07;3.83;;;1.73;;
54145;SDS011;65909;49.422;7.738;2023-04-03T04:54:32;3.70;;;1.90;;
54145;SDS011;65909;49.422;7.738;2023-04-03T04:56:58;4.90;;;1.65;;
54145;SDS011;65909;49.422;7.738;2023-04-03T04:59:23;3.17;;;1.50;;
54145;SDS011;65909;49.422;7.738;2023-04-03T05:01:49;5.18;;;1.80;;
54145;SDS011;65909;49.422;7.738;2023-04-03T05:04:14;3.10;;;1.83;;
54145;SDS011;65909;49.422;7.738;2023-04-03T05:06:40;5.15;;;1.88;;
54145;SDS011;65909;49.422;7.738;2023-04-03T05:09:05;4.88;;;1.48;;
54145;SDS011;65909;49.422;7.738;2023-04-03T05:11:31;5.30;;;2.00;;
54145;SDS011;65909;49.422;7.738;2023-04-03T05:13:57;2.30;;;1.58;;
54145;SDS011;65909;49.422;7.738;2023-04-03T05:16:22;7.25;;;1.92;;
54145;SDS011;65909;49.422;7.738;2023-04-03T05:18:47;2.67;;;1.77;;
54145;SDS011;65909;49.422;7.738;2023-04-03T05:21:13;4.32;;;1.65;;
54145;SDS011;65909;49.422;7.738;2023-04-03T05:23:38;2.17;;;1.40;;
54145;SDS011;65909;49.422;7.738;2023-04-03T05:26:04;8.90;;;2.65;;
54145;SDS011;65909;49.422;7.738;2023-04-03T05:28:29;3.15;;;1.45;;
54145;SDS011;65909;49.422;7.738;2023-04-03T05:30:55;4.47;;;2.53;;
54145;SDS011;65909;49.422;7.738;2023-04-03T05:33:22;5.38;;;1.80;;
54145;SDS011;65909;49.422;7.738;2023-04-03T05:35:47;5.65;;;1.85;;
54145;SDS011;65909;49.422;7.738;2023-04-03T05:38:13;3.50;;;1.90;;
54145;SDS011;65909;49.422;7.738;2023-04-03T05:40:38;3.40;;;1.85;;
54145;SDS011;65909;49.422;7.738;2023-04-03T05:43:04;2.50;;;1.50;;
54145;SDS011;65909;49.422;7.738;2023-04-03T05:45:29;4.22;;;1.70;;
54145;SDS011;65909;49.422;7.738;2023-04-03T05:47:55;1.63;;;1.40;;
54145;SDS011;65909;49.422;7.738;2023-04-03T05:50:20;3.65;;;1.70;;
54145;SDS011;65909;49.422;7.738;2023-04-03T05:52:46;4.47;;;1.88;;
54145;SDS011;65909;49.422;7.738;2023-04-03T05:55:14;3.58;;;1.80;;
54145;SDS011;65909;49.422;7.738;2023-04-03T05:57:39;4.72;;;1.67;;
54145;SDS011;65909;49.422;7.738;2023-04-03T06:00:05;4.10;;;1.50;;
54145;SDS011;65909;49.422;7.738;2023-04-03T06:02:32;2.70;;;1.73;;
54145;SDS011;65909;49.422;7.738;2023-04-03T06:04:57;5.78;;;1.60;;
54145;SDS011;65909;49.422;7.738;2023-04-03T06:07:23;2.42;;;1.45;;
54145;SDS011;65909;49.422;7.738;2023-04-03T06:09:53;6.07;;;2.10;;
54145;SDS011;65909;49.422;7.738;2023-04-03T06:12:20;6.13;;;2.97;;
54145;SDS011;65909;49.422;7.738;2023-04-03T06:14:47;5.10;;;1.55;;
54145;SDS011;65909;49.422;7.738;2023-04-03T06:17:13;4.85;;;1.73;;
54145;SDS011;65909;49.422;7.738;2023-04-03T06:19:40;2.50;;;1.45;;
54145;SDS011;65909;49.422;7.738;2023-04-03T06:22:05;5.07;;;1.60;;
54145;SDS011;65909;49.422;7.738;2023-04-03T06:24:31;3.45;;;1.70;;
54145;SDS011;65909;49.422;7.738;2023-04-03T06:26:57;3.45;;;1.70;;
54145;SDS011;65909;49.422;7.738;2023-04-03T06:29:23;2.67;;;1.70;;
54145;SDS011;65909;49.422;7.738;2023-04-03T06:31:49;3.53;;;1.70;;
54145;SDS011;65909;49.422;7.738;2023-04-03T06:34:15;6.65;;;2.03;;
54145;SDS011;65909;49.422;7.738;2023-04-03T06:36:41;3.63;;;2.55;;
54145;SDS011;65909;49.422;7.738;2023-04-03T06:39:08;2.72;;;2.00;;
54145;SDS011;65909;49.422;7.738;2023-04-03T06:41:38;7.20;;;2.38;;
54145;SDS011;65909;49.422;7.738;2023-04-03T06:44:03;3.92;;;2.20;;
54145;SDS011;65909;49.422;7.738;2023-04-03T06:46:29;4.40;;;1.63;;
54145;SDS011;65909;49.422;7.738;2023-04-03T06:48:54;3.92;;;2.08;;
54145;SDS011;65909;49.422;7.738;2023-04-03T06:53:47;4.25;;;1.73;;
54145;SDS011;65909;49.422;7.738;2023-04-03T06:56:13;5.10;;;2.30;;
54145;SDS011;65909;49.422;7.738;2023-04-03T06:58:39;4.63;;;1.80;;
54145;SDS011;65909;49.422;7.738;2023-04-03T07:01:05;3.45;;;1.73;;
54145;SDS011;65909;49.422;7.738;2023-04-03T07:03:31;3.92;;;2.35;;
54145;SDS011;65909;49.422;7.738;2023-04-03T07:05:56;7.18;;;2.40;;
54145;SDS011;65909;49.422;7.738;2023-04-03T07:08:21;3.75;;;2.15;;
54145;SDS011;65909;49.422;7.738;2023-04-03T07:10:48;4.93;;;2.03;;
54145;SDS011;65909;49.422;7.738;2023-04-03T07:13:14;5.15;;;1.88;;
54145;SDS011;65909;49.422;7.738;2023-04-03T07:15:40;5.03;;;1.60;;
54145;SDS011;65909;49.422;7.738;2023-04-03T07:18:05;5.53;;;1.88;;
54145;SDS011;65909;49.422;7.738;2023-04-03T07:20:31;3.50;;;1.70;;
54145;SDS011;65909;49.422;7.738;2023-04-03T07:22:56;7.00;;;2.25;;
54145;SDS011;65909;49.422;7.738;2023-04-03T07:25:22;4.75;;;1.55;;
54145;SDS011;65909;49.422;7.738;2023-04-03T07:27:47;3.40;;;1.60;;
54145;SDS011;65909;49.422;7.738;2023-04-03T07:30:14;4.80;;;1.40;;
54145;SDS011;65909;49.422;7.738;2023-04-03T07:32:39;5.75;;;2.03;;
54145;SDS011;65909;49.422;7.738;2023-04-03T07:35:05;2.85;;;1.80;;
54145;SDS011;65909;49.422;7.738;2023-04-03T07:37:31;4.07;;;1.75;;
54145;SDS011;65909;49.422;7.738;2023-04-03T07:39:57;6.80;;;2.47;;
54145;SDS011;65909;49.422;7.738;2023-04-03T07:42:23;1.83;;;1.50;;
54145;SDS011;65909;49.422;7.738;2023-04-03T07:44:52;3.65;;;1.80;;
54145;SDS011;65909;49.422;7.738;2023-04-03T07:47:18;3.63;;;1.92;;
54145;SDS011;65909;49.422;7.738;2023-04-03T07:49:43;4.80;;;1.70;;
54145;SDS011;65909;49.422;7.738;2023-04-03T07:52:08;2.92;;;1.30;;
54145;SDS011;65909;49.422;7.738;2023-04-03T07:54:34;2.13;;;1.48;;
54145;SDS011;65909;49.422;7.738;2023-04-03T07:57:00;4.00;;;1.40;;
54145;SDS011;65909;49.422;7.738;2023-04-03T07:59:26;3.20;;;1.85;;
54145;SDS011;65909;49.422;7.738;2023-04-03T08:01:51;3.47;;;1.45;;
54145;SDS011;65909;49.422;7.738;2023-04-03T08:04:17;3.35;;;1.48;;
54145;SDS011;65909;49.422;7.738;2023-04-03T08:06:42;3.38;;;1.65;;
54145;SDS011;65909;49.422;7.738;2023-04-03T08:09:08;2.97;;;1.50;;
54145;SDS011;65909;49.422;7.738;2023-04-03T08:11:33;3.28;;;1.50;;
54145;SDS011;65909;49.422;7.738;2023-04-03T08:14:01;6.60;;;1.58;;
54145;SDS011;65909;49.422;7.738;2023-04-03T08:16:27;3.92;;;1.60;;
54145;SDS011;65909;49.422;7.738;2023-04-03T08:18:53;4.63;;;1.63;;
54145;SDS011;65909;49.422;7.738;2023-04-03T08:21:19;3.30;;;1.40;;
54145;SDS011;65909;49.422;7.738;2023-04-03T08:23:47;3.13;;;1.50;;
54145;SDS011;65909;49.422;7.738;2023-04-03T08:26:14;3.17;;;1.58;;
54145;SDS011;65909;49.422;7.738;2023-04-03T08:28:41;4.63;;;1.52;;
54145;SDS011;65909;49.422;7.738;2023-04-03T08:31:09;4.85;;;1.80;;
54145;SDS011;65909;49.422;7.738;2023-04-03T08:33:37;3.80;;;1.88;;
54145;SDS011;65909;49.422;7.738;2023-04-03T08:36:06;3.60;;;1.42;;
54145;SDS011;65909;49.422;7.738;2023-04-03T08:38:40;2.50;;;1.70;;
54145;SDS011;65909;49.422;7.738;2023-04-03T08:41:11;4.18;;;1.88;;
54145;SDS011;65909;49.422;7.738;2023-04-03T08:44:05;3.17;;;1.30;;
54145;SDS011;65909;49.422;7.738;2023-04-03T08:46:46;2.83;;;1.40;;
54145;SDS011;65909;49.422;7.738;2023-04-03T08:49:35;3.30;;;1.60;;
54145;SDS011;65909;49.422;7.738;2023-04-03T08:54:49;2.42;;;1.45;;
54145;SDS011;65909;49.422;7.738;2023-04-03T08:57:34;2.85;;;1.35;;
54145;SDS011;65909;49.422;7.738;2023-04-03T09:00:23;3.10;;;1.50;;
54145;SDS011;65909;49.422;7.738;2023-04-03T09:02:51;2.55;;;1.50;;
54145;SDS011;65909;49.422;7.738;2023-04-03T09:05:40;4.30;;;1.52;;
54145;SDS011;65909;49.422;7.738;2023-04-03T09:10:47;3.10;;;1.90;;
54145;SDS011;65909;49.422;7.738;2023-04-03T09:19:07;3.95;;;1.63;;
54145;SDS011;65909;49.422;7.738;2023-04-03T09:21:50;4.38;;;1.55;;
54145;SDS011;65909;49.422;7.738;2023-04-03T09:24:16;3.10;;;1.50;;
54145;SDS011;65909;49.422;7.738;2023-04-03T09:29:14;4.22;;;1.73;;
54145;SDS011;65909;49.422;7.738;2023-04-03T09:31:43;2.63;;;1.65;;
54145;SDS011;65909;49.422;7.738;2023-04-03T09:36:57;4.05;;;1.70;;
54145;SDS011;65909;49.422;7.738;2023-04-03T09:39:30;4.30;;;1.40;;
54145;SDS011;65909;49.422;7.738;2023-04-03T09:41:58;2.88;;;1.77;;
54145;SDS011;65909;49.422;7.738;2023-04-03T09:47:00;2.58;;;1.67;;
54145;SDS011;65909;49.422;7.738;2023-04-03T09:49:43;3.15;;;2.03;;
54145;SDS011;65909;49.422;7.738;2023-04-03T09:52:25;1.88;;;1.17;;
54145;SDS011;65909;49.422;7.738;2023-04-03T09:54:51;4.05;;;1.35;;
54145;SDS011;65909;49.422;7.738;2023-04-03T09:57:18;5.50;;;1.80;;
54145;SDS011;65909;49.422;7.738;2023-04-03T10:00:05;2.88;;;2.00;;
54145;SDS011;65909;49.422;7.738;2023-04-03T10:02:32;2.30;;;1.73;;
54145;SDS011;65909;49.422;7.738;2023-04-03T10:05:00;4.13;;;1.58;;
54145;SDS011;65909;49.422;7.738;2023-04-03T10:07:28;2.88;;;1.50;;
54145;SDS011;65909;49.422;7.738;2023-04-03T10:10:22;2.95;;;1.50;;
54145;SDS011;65909;49.422;7.738;2023-04-03T10:12:47;2.85;;;1.98;;
54145;SDS011;65909;49.422;7.738;2023-04-03T10:15:14;2.53;;;1.60;;
54145;SDS011;65909;49.422;7.738;2023-04-03T10:25:37;2.33;;;1.42;;
54145;SDS011;65909;49.422;7.738;2023-04-03T10:28:10;4.03;;;1.48;;
54145;SDS011;65909;49.422;7.738;2023-04-03T10:41:12;2.72;;;1.92;;
54145;SDS011;65909;49.422;7.738;2023-04-03T10:46:19;2.28;;;1.63;;
54145;SDS011;65909;49.422;7.738;2023-04-03T10:51:44;4.63;;;2.00;;
54145;SDS011;65909;49.422;7.738;2023-04-03T10:54:12;3.13;;;2.15;;
54145;SDS011;65909;49.422;7.738;2023-04-03T10:56:52;4.60;;;1.67;;
54145;SDS011;65909;49.422;7.738;2023-04-03T10:59:28;2.97;;;1.73;;
54145;SDS011;65909;49.422;7.738;2023-04-03T11:02:40;3.03;;;1.63;;
54145;SDS011;65909;49.422;7.738;2023-04-03T11:04:51;2.33;;;1.42;;
54145;SDS011;65909;49.422;7.738;2023-04-03T11:07:29;3.45;;;1.80;;
54145;SDS011;65909;49.422;7.738;2023-04-03T11:10:03;1.98;;;1.55;;
54145;SDS011;65909;49.422;7.738;2023-04-03T11:12:42;2.80;;;1.80;;
54145;SDS011;65909;49.422;7.738;2023-04-03T11:15:12;2.97;;;1.40;;
54145;SDS011;65909;49.422;7.738;2023-04-03T11:17:42;3.28;;;1.45;;
54145;SDS011;65909;49.422;7.738;2023-04-03T11:20:20;1.92;;;1.40;;
54145;SDS011;65909;49.422;7.738;2023-04-03T11:23:03;2.67;;;1.52;;
54145;SDS011;65909;49.422;7.738;2023-04-03T11:25:42;2.28;;;1.40;;
54145;SDS011;65909;49.422;7.738;2023-04-03T11:28:14;3.83;;;1.40;;
54145;SDS011;65909;49.422;7.738;2023-04-03T11:30:44;2.38;;;1.50;;
54145;SDS011;65909;49.422;7.738;2023-04-03T11:36:32;3.28;;;1.55;;
54145;SDS011;65909;49.422;7.738;2023-04-03T11:39:25;4.18;;;1.60;;
54145;SDS011;65909;49.422;7.738;2023-04-03T11:41:55;2.83;;;1.45;;
54145;SDS011;65909;49.422;7.738;2023-04-03T11:44:36;2.15;;;1.38;;
54145;SDS011;65909;49.422;7.738;2023-04-03T11:47:04;2.65;;;1.73;;
54145;SDS011;65909;49.422;7.738;2023-04-03T12:11:21;1.58;;;1.42;;
54145;SDS011;65909;49.422;7.738;2023-04-03T12:24:25;4.10;;;1.55;;
54145;SDS011;65909;49.422;7.738;2023-04-03T12:27:03;2.65;;;1.52;;
54145;SDS011;65909;49.422;7.738;2023-04-03T12:29:37;2.65;;;1.70;;
54145;SDS011;65909;49.422;7.738;2023-04-03T12:45:26;2.38;;;1.55;;
54145;SDS011;65909;49.422;7.738;2023-04-03T12:47:53;2.55;;;1.55;;
54145;SDS011;65909;49.422;7.738;2023-04-03T12:50:24;2.33;;;1.40;;
54145;SDS011;65909;49.422;7.738;2023-04-03T12:53:04;2.38;;;1.52;;
54145;SDS011;65909;49.422;7.738;2023-04-03T12:55:32;2.85;;;1.58;;
54145;SDS011;65909;49.422;7.738;2023-04-03T12:58:12;3.45;;;1.55;;
54145;SDS011;65909;49.422;7.738;2023-04-03T13:01:01;3.75;;;1.63;;
54145;SDS011;65909;49.422;7.738;2023-04-03T13:03:33;3.25;;;1.92;;
54145;SDS011;65909;49.422;7.738;2023-04-03T13:06:02;3.17;;;1.90;;
54145;SDS011;65909;49.422;7.738;2023-04-03T13:08:28;3.38;;;1.95;;
54145;SDS011;65909;49.422;7.738;2023-04-03T13:11:00;3.88;;;1.75;;
54145;SDS011;65909;49.422;7.738;2023-04-03T13:13:27;3.88;;;1.90;;
54145;SDS011;65909;49.422;7.738;2023-04-03T13:15:54;5.65;;;2.00;;
54145;SDS011;65909;49.422;7.738;2023-04-03T13:20:53;4.90;;;2.50;;
54145;SDS011;65909;49.422;7.738;2023-04-03T13:23:43;3.55;;;2.20;;
54145;SDS011;65909;49.422;7.738;2023-04-03T13:26:11;3.25;;;1.90;;
54145;SDS011;65909;49.422;7.738;2023-04-03T13:28:40;3.63;;;2.10;;
54145;SDS011;65909;49.422;7.738;2023-04-03T13:33:39;2.95;;;1.83;;
54145;SDS011;65909;49.422;7.738;2023-04-03T13:36:21;3.08;;;1.77;;
54145;SDS011;65909;49.422;7.738;2023-04-03T13:41:41;3.15;;;1.80;;
54145;SDS011;65909;49.422;7.738;2023-04-03T13:44:32;3.25;;;2.33;;
54145;SDS011;65909;49.422;7.738;2023-04-03T13:47:21;3.10;;;1.80;;
54145;SDS011;65909;49.422;7.738;2023-04-03T13:50:12;4.63;;;2.03;;
54145;SDS011;65909;49.422;7.738;2023-04-03T13:52:40;3.78;;;2.20;;
54145;SDS011;65909;49.422;7.738;2023-04-03T13:57:58;3.00;;;1.42;;
54145;SDS011;65909;49.422;7.738;2023-04-03T14:02:57;3.15;;;1.60;;
54145;SDS011;65909;49.422;7.738;2023-04-03T14:05:23;2.25;;;1.30;;
54145;SDS011;65909;49.422;7.738;2023-04-03T14:07:50;4.15;;;1.30;;
54145;SDS011;65909;49.422;7.738;2023-04-03T14:10:16;2.55;;;1.20;;
54145;SDS011;65909;49.422;7.738;2023-04-03T14:12:41;1.88;;;1.08;;
54145;SDS011;65909;49.422;7.738;2023-04-03T14:15:14;1.55;;;0.90;;
54145;SDS011;65909;49.422;7.738;2023-04-03T14:17:45;1.90;;;1.20;;
54145;SDS011;65909;49.422;7.738;2023-04-03T14:20:18;2.30;;;1.10;;
54145;SDS011;65909;49.422;7.738;2023-04-03T14:22:45;3.53;;;1.77;;
54145;SDS011;65909;49.422;7.738;2023-04-03T14:25:11;1.83;;;1.20;;
54145;SDS011;65909;49.422;7.738;2023-04-03T14:27:38;3.92;;;1.48;;
54145;SDS011;65909;49.422;7.738;2023-04-03T14:30:06;3.03;;;1.40;;
54145;SDS011;65909;49.422;7.738;2023-04-03T14:32:34;2.85;;;1.15;;
54145;SDS011;65909;49.422;7.738;2023-04-03T14:35:00;1.40;;;0.90;;
54145;SDS011;65909;49.422;7.738;2023-04-03T14:37:28;2.20;;;1.10;;
54145;SDS011;65909;49.422;7.738;2023-04-03T14:39:55;5.07;;;1.08;;
54145;SDS011;65909;49.422;7.738;2023-04-03T14:42:23;1.55;;;1.20;;
54145;SDS011;65909;49.422;7.738;2023-04-03T14:44:51;2.08;;;1.52;;
54145;SDS011;65909;49.422;7.738;2023-04-03T14:47:18;3.28;;;1.20;;
54145;SDS011;65909;49.422;7.738;2023-04-03T14:49:46;1.42;;;1.00;;
54145;SDS011;65909;49.422;7.738;2023-04-03T14:52:20;1.80;;;1.02;;
54145;SDS011;65909;49.422;7.738;2023-04-03T14:54:49;1.17;;;1.08;;
54145;SDS011;65909;49.422;7.738;2023-04-03T14:57:15;1.88;;;1.08;;
54145;SDS011;65909;49.422;7.738;2023-04-03T14:59:43;1.70;;;0.95;;
54145;SDS011;65909;49.422;7.738;2023-04-03T15:02:26;1.73;;;1.10;;
54145;SDS011;65909;49.422;7.738;2023-04-03T15:04:56;2.33;;;1.08;;
54145;SDS011;65909;49.422;7.738;2023-04-03T15:07:23;2.17;;;1.30;;
54145;SDS011;65909;49.422;7.738;2023-04-03T15:09:50;1.38;;;1.15;;
54145;SDS011;65909;49.422;7.738;2023-04-03T15:12:15;1.75;;;1.13;;
54145;SDS011;65909;49.422;7.738;2023-04-03T15:14:41;2.10;;;0.98;;
54145;SDS011;65909;49.422;7.738;2023-04-03T15:17:08;2.85;;;1.05;;
54145;SDS011;65909;49.422;7.738;2023-04-03T15:22:08;2.25;;;1.00;;
54145;SDS011;65909;49.422;7.738;2023-04-03T15:24:41;1.73;;;1.10;;
54145;SDS011;65909;49.422;7.738;2023-04-03T15:27:07;3.92;;;1.17;;
54145;SDS011;65909;49.422;7.738;2023-04-03T15:29:33;3.10;;;1.10;;
54145;SDS011;65909;49.422;7.738;2023-04-03T15:31:58;2.55;;;1.02;;
54145;SDS011;65909;49.422;7.738;2023-04-03T15:34:24;4.95;;;1.50;;
54145;SDS011;65909;49.422;7.738;2023-04-03T15:36:50;2.92;;;1.10;;
54145;SDS011;65909;49.422;7.738;2023-04-03T15:39:17;5.05;;;1.05;;
54145;SDS011;65909;49.422;7.738;2023-04-03T15:41:42;2.95;;;1.50;;
54145;SDS011;65909;49.422;7.738;2023-04-03T15:44:10;1.75;;;1.30;;
54145;SDS011;65909;49.422;7.738;2023-04-03T15:46:37;3.00;;;1.23;;
54145;SDS011;65909;49.422;7.738;2023-04-03T15:49:03;1.23;;;1.13;;
54145;SDS011;65909;49.422;7.738;2023-04-03T15:51:29;2.28;;;1.30;;
54145;SDS011;65909;49.422;7.738;2023-04-03T15:53:55;2.10;;;1.08;;
54145;SDS011;65909;49.422;7.738;2023-04-03T15:56:20;1.63;;;1.30;;
54145;SDS011;65909;49.422;7.738;2023-04-03T15:58:45;2.40;;;1.20;;
54145;SDS011;65909;49.422;7.738;2023-04-03T16:01:11;1.67;;;0.90;;
54145;SDS011;65909;49.422;7.738;2023-04-03T16:03:36;2.22;;;1.10;;
54145;SDS011;65909;49.422;7.738;2023-04-03T16:06:03;3.70;;;1.45;;
54145;SDS011;65909;49.422;7.738;2023-04-03T16:08:29;2.83;;;1.42;;
54145;SDS011;65909;49.422;7.738;2023-04-03T16:10:54;1.45;;;1.10;;
54145;SDS011;65909;49.422;7.738;2023-04-03T16:13:20;1.38;;;1.27;;
54145;SDS011;65909;49.422;7.738;2023-04-03T16:15:45;4.20;;;1.20;;
54145;SDS011;65909;49.422;7.738;2023-04-03T16:18:11;2.58;;;1.30;;
54145;SDS011;65909;49.422;7.738;2023-04-03T16:20:38;2.53;;;1.33;;
54145;SDS011;65909;49.422;7.738;2023-04-03T16:23:04;1.92;;;1.05;;
54145;SDS011;65909;49.422;7.738;2023-04-03T16:25:29;4.38;;;1.45;;
54145;SDS011;65909;49.422;7.738;2023-04-03T16:27:56;2.78;;;1.30;;
54145;SDS011;65909;49.422;7.738;2023-04-03T16:30:21;3.50;;;1.30;;
54145;SDS011;65909;49.422;7.738;2023-04-03T16:32:47;2.83;;;1.40;;
54145;SDS011;65909;49.422;7.738;2023-04-03T16:35:12;2.95;;;1.33;;
54145;SDS011;65909;49.422;7.738;2023-04-03T16:37:38;1.75;;;1.40;;
54145;SDS011;65909;49.422;7.738;2023-04-03T16:40:05;3.25;;;1.10;;
54145;SDS011;65909;49.422;7.738;2023-04-03T16:42:31;2.63;;;1.13;;
54145;SDS011;65909;49.422;7.738;2023-04-03T16:44:57;1.30;;;1.20;;
54145;SDS011;65909;49.422;7.738;2023-04-03T16:47:24;3.00;;;1.02;;
54145;SDS011;65909;49.422;7.738;2023-04-03T16:49:50;3.20;;;1.27;;
54145;SDS011;65909;49.422;7.738;2023-04-03T16:52:15;2.67;;;1.20;;